Time;durP1;ratioP1;P1;durP2;ratioP2;P2;SDS_P1;SDS_P2;PMS_P1;PMS_P2;Temp;Humidity;BMP_temperature;BMP_pressure;BME280_temperature;BME280_humidity;BME280_pressure;Samples;Min_cycle;Max_cycle;Signal;HPM_P1;HPM_P2
2022/04/17 00:02:03;;;;;;;7.47;6.78;;;;;;;7.56;46.47;96470.84;4993122;28;20113;-73
2022/04/17 00:04:28;;;;;;;7.78;6.32;;;;;;;7.79;46.39;96522.69;4993411;28;20038;-75
2022/04/17 00:06:54;;;;;;;7.35;6.72;;;;;;;7.49;46.16;96482.72;4994937;28;20018;-75
2022/04/17 00:09:20;;;;;;;6.22;5.63;;;;;;;7.24;47.24;96467.38;4993362;28;20459;-75
2022/04/17 00:11:46;;;;;;;8.77;6.40;;;;;;;7.40;46.93;96473.63;4992928;28;20026;-73
2022/04/17 00:14:11;;;;;;;6.30;5.70;;;;;;;7.34;46.50;96467.47;4994579;28;20033;-76
2022/04/17 00:16:40;;;;;;;6.97;6.15;;;;;;;7.35;46.54;96461.13;4993066;28;20057;-75
2022/04/17 00:19:06;;;;;;;6.68;5.97;;;;;;;7.53;46.18;96492.53;4993174;28;20391;-75
2022/04/17 00:21:32;;;;;;;6.40;5.80;;;;;;;7.36;46.27;96456.63;4992640;28;20022;-75
2022/04/17 00:23:58;;;;;;;7.85;6.35;;;;;;;7.58;45.96;96481.22;4994397;28;20467;-74
2022/04/17 00:26:23;;;;;;;7.00;6.25;;;;;;;7.07;46.28;96441.03;4993061;28;20037;-75
2022/04/17 00:28:49;;;;;;;6.22;5.72;;;;;;;7.35;46.63;96477.00;4994360;28;20020;-75
2022/04/17 00:31:14;;;;;;;6.05;5.45;;;;;;;6.90;46.27;96396.13;4993248;28;20023;-74
2022/04/17 00:33:39;;;;;;;8.10;5.72;;;;;;;6.86;46.24;96391.56;4992840;28;20420;-74
2022/04/17 00:36:05;;;;;;;7.20;5.93;;;;;;;6.85;46.16;96422.53;4993942;28;20037;-75
2022/04/17 00:38:30;;;;;;;6.45;5.40;;;;;;;7.15;45.87;96434.47;4994018;28;20023;-74
2022/04/17 00:40:55;;;;;;;6.10;5.50;;;;;;;7.23;46.12;96456.00;4993634;28;20360;-75
2022/04/17 00:43:33;;;;;;;6.15;5.40;;;;;;;7.29;46.07;96494.69;4994013;28;20027;-75
2022/04/17 00:45:59;;;;;;;6.70;5.55;;;;;;;7.35;46.07;96492.09;4992656;28;20080;-75
2022/04/17 00:48:24;;;;;;;7.38;5.88;;;;;;;7.07;46.02;96429.66;4993801;28;20025;-75
2022/04/17 00:50:53;;;;;;;6.65;6.05;;;;;;;7.27;45.33;96475.63;4993686;28;20391;-75
2022/04/17 00:53:21;;;;;;;5.93;5.38;;;;;;;7.45;45.07;96492.19;4993793;28;20022;-75
2022/04/17 00:55:48;;;;;;;6.38;5.03;;;;;;;6.93;45.43;96400.13;4993641;28;20479;-75
2022/04/17 00:58:14;;;;;;;5.47;5.07;;;;;;;7.25;44.97;96461.81;4992461;28;20033;-74
2022/04/17 01:00:40;;;;;;;5.53;5.03;;;;;;;4.82;45.46;96140.94;4992086;28;20070;-75
2022/04/17 01:03:06;;;;;;;5.50;5.07;;;;;;;6.84;46.08;96420.13;4992388;28;20032;-74
2022/04/17 01:05:32;;;;;;;5.10;4.70;;;;;;;7.36;45.19;96498.97;4993687;28;20026;-72
2022/04/17 01:07:58;;;;;;;4.93;4.53;;;;;;;6.05;45.50;96297.16;4993637;28;20030;-75
2022/04/17 01:10:24;;;;;;;5.22;4.57;;;;;;;7.25;45.17;96484.84;4993131;28;20474;-74
2022/04/17 01:12:53;;;;;;;5.38;4.88;;;;;;;6.59;44.79;96352.72;4992492;28;20033;-72
2022/04/17 01:15:19;;;;;;;5.03;4.63;;;;;;;7.11;44.67;96444.75;4992231;28;20522;-73
2022/04/17 01:17:45;;;;;;;5.65;4.90;;;;;;;6.86;44.61;96388.94;4992357;28;20030;-75
2022/04/17 01:20:12;;;;;;;6.43;4.68;;;;;;;6.86;45.18;96420.66;4992092;28;20374;-73
2022/04/17 01:22:37;;;;;;;4.78;4.38;;;;;;;7.13;44.56;96461.19;4993239;28;20022;-75
2022/04/17 01:27:47;;;;;;;6.68;4.82;;;;;;;6.75;44.84;96375.59;4993491;28;20206;-74
2022/04/17 01:30:13;;;;;;;8.00;4.50;;;;;;;6.91;44.45;96415.44;4992775;28;20553;-75
2022/04/17 01:32:38;;;;;;;5.20;4.72;;;;;;;6.66;45.06;96379.78;4993303;28;20498;-73
2022/04/17 01:35:04;;;;;;;6.28;4.82;;;;;;;6.30;45.09;96390.97;4993113;28;20077;-71
2022/04/17 01:37:29;;;;;;;5.07;4.60;;;;;;;6.90;44.23;96427.88;4992617;28;20041;-75
2022/04/17 01:39:55;;;;;;;5.07;4.68;;;;;;;6.14;44.36;96306.25;4993041;28;20399;-74
2022/04/17 01:42:20;;;;;;;6.80;4.72;;;;;;;5.71;44.75;96278.75;4992484;28;20053;-74
2022/04/17 01:44:45;;;;;;;4.97;4.45;;;;;;;6.52;45.07;96375.91;4992867;28;20057;-72
2022/04/17 01:47:11;;;;;;;5.45;4.95;;;;;;;7.21;44.44;96444.84;4993081;28;20039;-75
2022/04/17 01:49:36;;;;;;;5.75;5.15;;;;;;;7.08;43.80;96431.22;4991631;28;20457;-75
2022/04/17 01:52:02;;;;;;;5.15;4.50;;;;;;;6.74;44.19;96368.72;4992399;28;20447;-74
2022/04/17 01:54:28;;;;;;;4.65;4.22;;;;;;;7.40;44.04;96447.16;4992684;28;20027;-74
2022/04/17 01:56:55;;;;;;;5.30;4.75;;;;;;;7.01;43.88;96429.59;4992506;28;20026;-75
2022/04/17 01:59:21;;;;;;;5.47;4.97;;;;;;;6.99;44.43;96423.72;4992703;28;20038;-75
2022/04/17 02:01:48;;;;;;;5.18;4.68;;;;;;;7.16;44.42;96451.94;4992251;28;20018;-74
2022/04/17 02:04:14;;;;;;;5.40;5.00;;;;;;;7.20;44.18;96447.75;4992659;28;20026;-73
2022/04/17 02:06:39;;;;;;;6.03;4.72;;;;;;;7.13;44.72;96439.22;4992520;28;20034;-74
2022/04/17 02:09:09;;;;;;;6.20;5.03;;;;;;;7.05;44.44;96392.84;4990884;28;20057;-73
2022/04/17 02:11:35;;;;;;;6.30;5.70;;;;;;;5.84;45.36;96238.00;4990589;28;20101;-74
2022/04/17 02:14:00;;;;;;;5.72;5.32;;;;;;;7.06;45.43;96420.88;4992336;28;20022;-75
2022/04/17 02:16:26;;;;;;;5.70;5.20;;;;;;;5.83;46.09;96264.63;4992039;28;20053;-73
2022/04/17 02:18:54;;;;;;;5.97;5.47;;;;;;;6.76;45.30;96408.97;4991095;28;20121;-75
2022/04/17 02:21:21;;;;;;;5.43;4.75;;;;;;;6.77;45.82;96423.78;4990655;28;20018;-74
2022/04/17 02:23:47;;;;;;;6.38;5.43;;;;;;;6.93;45.61;96422.09;4991166;28;20032;-74
2022/04/17 02:26:16;;;;;;;6.20;5.50;;;;;;;6.89;45.93;96420.19;4991902;28;20060;-74
2022/04/17 02:28:41;;;;;;;7.85;5.25;;;;;;;6.03;45.86;96270.19;4991906;28;20455;-74
2022/04/17 02:31:08;;;;;;;5.85;5.25;;;;;;;6.70;45.47;96385.34;4991515;28;20034;-74
2022/04/17 02:33:34;;;;;;;5.90;5.22;;;;;;;6.97;45.05;96417.13;4992097;28;20034;-74
2022/04/17 02:36:00;;;;;;;5.93;5.43;;;;;;;6.13;45.14;96278.22;4991759;28;20030;-72
2022/04/17 02:38:26;;;;;;;7.18;4.95;;;;;;;6.53;46.09;96348.41;4990562;28;20022;-74
2022/04/17 02:40:53;;;;;;;5.53;5.03;;;;;;;6.31;45.83;96318.59;4991393;28;20033;-75
2022/04/17 02:43:19;;;;;;;5.72;5.20;;;;;;;6.51;45.52;96361.09;4990539;28;20034;-74
2022/04/17 02:45:45;;;;;;;5.65;5.15;;;;;;;6.59;45.67;96368.56;4991902;28;20031;-74
2022/04/17 02:48:10;;;;;;;5.95;5.35;;;;;;;6.97;45.14;96415.25;4990037;28;20023;-72
2022/04/17 02:50:36;;;;;;;6.13;5.63;;;;;;;6.71;46.18;96387.75;4991058;28;20134;-75
2022/04/17 02:53:02;;;;;;;5.82;5.32;;;;;;;6.12;45.96;96320.75;4989444;28;20023;-75
2022/04/17 02:55:27;;;;;;;6.28;5.13;;;;;;;6.37;45.87;96323.66;4989734;28;20371;-74
2022/04/17 02:57:54;;;;;;;5.90;5.40;;;;;;;6.85;46.43;96405.84;4991724;28;20030;-75
2022/04/17 03:00:19;;;;;;;6.70;6.07;;;;;;;5.63;47.23;96278.38;4991196;28;20037;-74
2022/04/17 03:05:36;;;;;;;6.03;5.43;;;;;;;6.82;46.38;96386.00;4991898;28;20096;-75
2022/04/17 03:08:02;;;;;;;6.70;6.00;;;;;;;6.72;46.47;96368.19;4991622;28;20054;-75
2022/04/17 03:10:27;;;;;;;6.50;5.90;;;;;;;6.27;46.36;96289.22;4991294;28;20085;-74
2022/04/17 03:12:53;;;;;;;6.50;5.90;;;;;;;6.73;46.38;96369.00;4991719;28;20038;-74
2022/04/17 03:15:18;;;;;;;8.27;6.10;;;;;;;5.99;46.60;96254.06;4990742;28;20026;-74
2022/04/17 03:17:43;;;;;;;6.90;6.18;;;;;;;6.30;46.12;96309.06;4991684;28;20030;-74
2022/04/17 03:20:10;;;;;;;7.03;6.43;;;;;;;5.79;46.80;96221.31;4991365;28;20034;-75
2022/04/17 03:22:36;;;;;;;7.80;6.68;;;;;;;6.49;46.46;96326.16;4991398;28;20485;-74
2022/04/17 03:25:02;;;;;;;7.13;6.20;;;;;;;6.53;47.03;96376.69;4991824;28;20022;-75
2022/04/17 03:27:30;;;;;;;8.70;6.45;;;;;;;6.14;47.07;96300.16;4991654;28;20109;-74
2022/04/17 03:29:56;;;;;;;7.70;6.90;;;;;;;6.61;47.60;96392.13;4991774;28;20033;-74
2022/04/17 03:32:21;;;;;;;8.38;6.57;;;;;;;5.98;47.29;96278.03;4991535;28;20385;-76
2022/04/17 03:34:47;;;;;;;7.43;6.70;;;;;;;6.66;47.09;96357.81;4991692;28;20045;-74
2022/04/17 03:37:14;;;;;;;7.75;6.57;;;;;;;6.59;46.74;96342.13;4990319;28;20034;-74
2022/04/17 03:39:39;;;;;;;7.72;6.93;;;;;;;6.72;47.69;96392.00;4991853;28;20110;-74
2022/04/17 03:42:05;;;;;;;8.45;6.82;;;;;;;6.51;47.84;96369.81;4990134;28;20034;-74
2022/04/17 03:44:30;;;;;;;7.40;6.70;;;;;;;5.78;47.04;96217.84;4990533;28;20066;-74
2022/04/17 03:46:56;;;;;;;7.35;6.45;;;;;;;5.36;46.86;96138.44;4990478;28;20462;-74
2022/04/17 03:49:21;;;;;;;7.63;6.88;;;;;;;6.38;47.12;96308.59;4991772;28;20026;-74
2022/04/17 03:51:46;;;;;;;7.35;6.68;;;;;;;6.85;47.09;96388.13;4991312;28;20379;-74
2022/04/17 03:54:12;;;;;;;7.82;7.13;;;;;;;6.53;46.99;96332.56;4991451;28;20076;-74
2022/04/17 03:56:37;;;;;;;8.32;7.07;;;;;;;6.80;47.13;96401.31;4990979;28;20153;-73
2022/04/17 03:59:02;;;;;;;8.20;7.40;;;;;;;6.06;47.89;96269.69;4991060;28;20030;-74
2022/04/17 04:01:29;;;;;;;8.45;7.68;;;;;;;6.13;47.32;96275.56;4994197;28;20029;-74
2022/04/17 04:03:55;;;;;;;8.38;7.68;;;;;;;6.72;47.21;96372.69;4993578;28;20117;-73
2022/04/17 04:06:21;;;;;;;7.35;6.72;;;;;;;6.44;47.75;96328.75;4993515;28;20587;-74
2022/04/17 04:08:50;;;;;;;8.82;7.95;;;;;;;6.69;47.83;96373.97;4994790;28;20014;-74
2022/04/17 04:11:16;;;;;;;8.30;7.50;;;;;;;5.62;47.71;96213.44;4994282;28;20031;-74
2022/04/17 04:13:42;;;;;;;8.20;7.40;;;;;;;6.47;48.12;96355.50;4993116;28;20033;-74
2022/04/17 04:16:07;;;;;;;7.95;7.25;;;;;;;6.07;47.57;96297.69;4994332;28;20027;-74
2022/04/17 04:18:33;;;;;;;8.73;7.93;;;;;;;6.60;47.83;96375.44;4994870;28;20033;-73
2022/04/17 04:20:58;;;;;;;9.27;7.93;;;;;;;5.61;48.28;96236.38;4994195;28;20029;-73
2022/04/17 04:23:24;;;;;;;8.50;7.63;;;;;;;6.34;48.60;96387.56;4994393;28;20058;-73
2022/04/17 04:25:49;;;;;;;8.60;7.80;;;;;;;6.06;49.10;96340.22;4994374;28;20379;-73
2022/04/17 04:28:33;;;;;;;8.35;7.53;;;;;;;6.42;48.72;96386.38;4993089;28;20027;-74
2022/04/17 04:31:01;;;;;;;8.63;7.47;;;;;;;6.40;48.72;96391.91;4994198;28;20478;-73
2022/04/17 04:33:26;;;;;;;8.48;7.57;;;;;;;4.91;48.27;96126.28;4992726;28;20068;-73
2022/04/17 04:35:52;;;;;;;7.90;7.20;;;;;;;5.43;47.99;96200.56;4993997;28;20030;-73
2022/04/17 04:38:17;;;;;;;7.15;6.55;;;;;;;6.68;48.26;96390.88;4994243;28;20026;-74
2022/04/17 04:40:43;;;;;;;7.30;6.70;;;;;;;6.28;48.61;96295.28;4993632;28;20081;-73
2022/04/17 04:43:08;;;;;;;7.57;6.88;;;;;;;6.96;47.66;96375.81;4992836;28;20054;-73
2022/04/17 04:49:29;;;;;;;7.38;6.68;;;;;;;6.89;47.83;96352.22;4994108;28;20127;-73
2022/04/17 04:51:03;;;;;;;7.35;6.60;;;;;;;6.59;47.58;96305.13;4993622;28;20656;-74
2022/04/17 04:53:28;;;;;;;7.40;6.55;;;;;;;7.18;46.98;96373.13;4993853;28;20054;-73
2022/04/17 04:55:54;;;;;;;6.63;6.07;;;;;;;6.50;46.54;96254.56;4976490;28;20168;-74
2022/04/17 04:58:20;;;;;;;7.18;6.47;;;;;;;6.71;46.71;96260.03;4992722;28;20057;-74
2022/04/17 05:00:46;;;;;;;7.32;6.45;;;;;;;7.51;46.18;96351.66;4993667;28;20585;-76
2022/04/17 05:03:11;;;;;;;6.70;6.00;;;;;;;7.65;46.05;96386.44;4993749;28;20529;-74
2022/04/17 05:05:36;;;;;;;9.18;6.68;;;;;;;7.43;46.34;96336.25;4993462;28;20081;-73
2022/04/17 05:08:02;;;;;;;7.25;6.55;;;;;;;6.91;46.00;96280.53;4993628;28;20524;-74
2022/04/17 05:10:27;;;;;;;7.70;6.28;;;;;;;7.79;45.60;96370.94;4993166;28;20037;-72
2022/04/17 05:12:53;;;;;;;7.15;6.45;;;;;;;6.71;45.71;96247.63;4992972;28;20121;-74
2022/04/17 05:15:18;;;;;;;7.28;6.57;;;;;;;7.28;47.19;96304.41;4992299;28;20027;-75
2022/04/17 05:17:43;;;;;;;6.40;5.80;;;;;;;6.40;45.75;96214.03;4993447;28;20034;-74
2022/04/17 05:20:09;;;;;;;6.78;6.10;;;;;;;7.54;46.29;96348.50;4991767;28;20022;-74
2022/04/17 05:22:35;;;;;;;5.60;5.07;;;;;;;6.89;45.63;96221.81;4993219;28;20030;-74
2022/04/17 05:25:00;;;;;;;7.88;5.85;;;;;;;7.40;44.95;96309.50;4992022;28;20426;-75
2022/04/17 05:27:27;;;;;;;6.38;5.78;;;;;;;7.99;44.60;96381.63;4993277;28;20440;-74
2022/04/17 05:29:52;;;;;;;6.03;5.45;;;;;;;7.08;44.71;96216.94;4991739;28;20030;-74
2022/04/17 05:32:18;;;;;;;6.40;5.57;;;;;;;6.81;44.23;96195.84;4992566;28;20117;-74
2022/04/17 05:34:43;;;;;;;5.82;5.18;;;;;;;7.09;44.37;96247.63;4991898;28;20026;-74
2022/04/17 05:37:08;;;;;;;5.40;4.90;;;;;;;6.85;43.72;96200.38;4991621;28;20033;-74
2022/04/17 05:39:34;;;;;;;4.82;4.43;;;;;;;7.25;43.96;96259.91;4993034;28;20081;-74
2022/04/17 05:42:00;;;;;;;5.45;4.90;;;;;;;7.42;43.74;96275.63;4992503;28;20105;-75
2022/04/17 05:44:27;;;;;;;5.25;4.75;;;;;;;7.91;43.99;96368.06;4992656;28;20072;-74
2022/04/17 05:46:54;;;;;;;7.40;5.03;;;;;;;8.14;43.70;96377.44;4993070;28;20097;-75
2022/04/17 05:49:21;;;;;;;5.35;4.45;;;;;;;8.00;43.66;96321.50;4991549;28;20072;-74
2022/04/17 05:51:46;;;;;;;5.18;4.65;;;;;;;7.66;43.25;96265.44;4992535;28;20057;-73
2022/04/17 05:54:13;;;;;;;6.15;4.43;;;;;;;7.89;43.28;96317.22;4991603;28;20073;-75
2022/04/17 05:56:38;;;;;;;5.93;4.20;;;;;;;8.37;43.08;96320.59;4991150;28;20022;-74
2022/04/17 05:59:07;;;;;;;4.55;4.15;;;;;;;8.04;42.34;96319.94;4991347;28;20092;-74
2022/04/17 06:01:32;;;;;;;4.72;4.30;;;;;;;8.67;42.21;96372.94;4991013;28;20031;-74
2022/04/17 06:04:01;;;;;;;5.18;4.10;;;;;;;7.53;41.53;96172.19;4991284;28;20033;-74
2022/04/17 06:06:26;;;;;;;4.80;4.35;;;;;;;7.91;41.47;96225.00;4992453;28;20027;-75
2022/04/17 06:08:52;;;;;;;5.25;4.07;;;;;;;8.90;41.46;96340.59;4992375;28;20088;-74
2022/04/17 06:11:17;;;;;;;5.40;4.43;;;;;;;8.82;40.73;96363.16;4991957;28;20038;-74
2022/04/17 06:13:42;;;;;;;4.43;4.03;;;;;;;8.87;40.75;96378.28;4992247;28;20505;-74
2022/04/17 06:16:08;;;;;;;4.28;3.88;;;;;;;7.73;41.59;96255.41;4992020;28;20030;-73
2022/04/17 06:18:33;;;;;;;4.60;4.20;;;;;;;8.54;40.71;96340.53;4992047;28;20037;-74
2022/04/17 06:20:59;;;;;;;5.10;4.10;;;;;;;8.37;41.97;96267.59;4991636;28;20034;-69
2022/04/17 06:23:24;;;;;;;5.25;4.10;;;;;;;9.13;44.30;96370.38;4991272;28;20019;-71
2022/04/17 06:25:50;;;;;;;5.18;3.80;;;;;;;9.20;40.16;96312.50;4991969;28;20533;-66
2022/04/17 06:28:15;;;;;;;5.10;3.83;;;;;;;7.45;40.12;96028.94;4992000;28;20094;-67
2022/04/17 06:30:41;;;;;;;5.78;4.05;;;;;;;8.70;39.34;96194.69;4991300;28;20110;-66
2022/04/17 06:33:06;;;;;;;5.65;4.38;;;;;;;8.18;39.67;96124.91;4991890;28;20085;-64
2022/04/17 06:35:31;;;;;;;3.95;3.63;;;;;;;8.13;39.63;96175.25;4996455;28;20090;-67
2022/04/17 06:37:59;;;;;;;6.60;3.58;;;;;;;7.98;38.65;96095.75;4990282;28;20027;-67
2022/04/17 06:40:27;;;;;;;3.97;3.67;;;;;;;7.91;39.50;96124.34;4990687;28;20030;-68
2022/04/17 06:42:57;;;;;;;4.07;3.67;;;;;;;7.92;39.78;96200.09;4992268;28;20027;-69
2022/04/17 06:45:25;;;;;;;4.07;3.78;;;;;;;7.86;38.85;96105.78;4973050;28;20027;-72
2022/04/17 06:47:50;;;;;;;5.13;3.15;;;;;;;8.19;38.52;96191.94;4972936;28;20031;-70
2022/04/17 06:50:16;;;;;;;4.38;3.53;;;;;;;8.85;38.24;96256.53;4972449;28;20041;-69
2022/04/17 06:52:42;;;;;;;3.55;3.25;;;;;;;9.52;37.85;96253.75;4986971;28;20030;-68
2022/04/17 06:55:11;;;;;;;4.05;3.67;;;;;;;9.64;37.12;96312.72;4990929;28;20026;-68
2022/04/17 06:57:39;;;;;;;4.00;3.58;;;;;;;9.93;36.95;96304.94;4992083;28;20034;-69
2022/04/17 07:00:10;;;;;;;4.93;3.53;;;;;;;10.13;36.40;96341.28;4991711;28;20053;-69
2022/04/17 07:02:40;;;;;;;3.73;3.40;;;;;;;8.34;36.54;96070.84;4990849;28;20033;-70
2022/04/17 07:05:06;;;;;;;3.60;3.30;;;;;;;8.81;36.42;96127.31;4992217;28;20522;-74
2022/04/17 07:07:32;;;;;;;3.33;3.00;;;;;;;9.61;35.72;96326.53;4991417;28;20063;-75
2022/04/17 07:09:57;;;;;;;3.78;3.42;;;;;;;8.77;36.01;96180.09;4990728;28;20054;-74
2022/04/17 07:12:23;;;;;;;3.50;3.05;;;;;;;8.52;36.48;96082.78;4991725;28;20030;-69
2022/04/17 07:14:50;;;;;;;5.28;3.80;;;;;;;10.34;35.85;96366.78;4992410;28;20022;-71
2022/04/17 07:17:15;;;;;;;4.30;3.38;;;;;;;10.66;35.72;96376.22;4990670;28;20030;-76
2022/04/17 07:19:41;;;;;;;3.92;3.50;;;;;;;10.04;35.52;96194.06;4992135;28;20022;-74
2022/04/17 07:22:06;;;;;;;3.20;2.90;;;;;;;11.00;35.32;96332.88;4990989;28;20391;-76
2022/04/17 07:24:32;;;;;;;3.55;3.25;;;;;;;10.43;34.58;96281.88;4991961;28;20110;-75
2022/04/17 07:27:00;;;;;;;3.42;3.13;;;;;;;9.73;34.42;96194.22;4990876;28;20110;-76
2022/04/17 07:29:26;;;;;;;6.78;3.70;;;;;;;11.04;33.44;96374.66;4991240;28;20046;-74
2022/04/17 07:31:55;;;;;;;3.53;3.22;;;;;;;10.96;33.73;96375.25;4991492;28;20019;-73
2022/04/17 07:34:21;;;;;;;3.42;3.13;;;;;;;9.53;34.37;96242.09;4992140;28;20026;-73
2022/04/17 07:36:47;;;;;;;3.40;3.10;;;;;;;9.62;34.70;96293.59;4993924;28;20095;-75
2022/04/17 07:39:16;;;;;;;3.97;3.58;;;;;;;8.89;33.38;96129.41;4994983;28;20652;-75
2022/04/17 07:41:43;;;;;;;3.53;3.22;;;;;;;10.47;33.24;96295.44;4994616;28;20030;-74
2022/04/17 07:44:11;;;;;;;3.30;3.00;;;;;;;9.39;32.62;96148.91;4996196;28;20126;-76
2022/04/17 07:46:38;;;;;;;2.97;2.78;;;;;;;10.43;32.97;96267.78;4994967;28;20035;-74
2022/04/17 07:49:03;;;;;;;3.28;2.97;;;;;;;10.71;32.98;96338.94;4995483;28;20037;-70
2022/04/17 07:51:29;;;;;;;3.60;2.88;;;;;;;9.16;33.23;96053.94;4994756;28;20379;-71
2022/04/17 07:53:54;;;;;;;5.43;2.65;;;;;;;9.98;32.09;96113.56;4995454;28;20141;-77
2022/04/17 07:56:20;;;;;;;4.47;2.70;;;;;;;10.31;32.68;96234.34;4995496;28;20124;-70
2022/04/17 07:58:45;;;;;;;2.95;2.75;;;;;;;9.87;32.27;96120.00;4995337;28;20027;-68
2022/04/17 08:01:11;;;;;;;3.35;2.80;;;;;;;8.85;32.96;96067.31;4985187;28;20118;-69
2022/04/17 08:06:06;;;;;;;3.00;2.80;;;;;;;10.30;32.74;96216.81;4976393;28;20103;-72
2022/04/17 08:08:35;;;;;;;3.75;2.90;;;;;;;11.52;32.90;96342.88;4992069;28;20034;-76
2022/04/17 08:11:00;;;;;;;4.43;2.50;;;;;;;11.27;33.08;96245.34;4995644;28;20038;-71
2022/04/17 08:13:26;;;;;;;2.70;2.50;;;;;;;12.31;31.50;96331.97;4994189;28;20050;-75
2022/04/17 08:15:51;;;;;;;4.43;2.80;;;;;;;10.89;31.69;96223.81;4995101;28;20022;-73
2022/04/17 08:18:16;;;;;;;2.95;2.75;;;;;;;10.65;31.91;96254.91;4993813;28;20026;-75
2022/04/17 08:20:43;;;;;;;3.17;2.88;;;;;;;11.56;31.63;96321.78;4993354;28;20054;-74
2022/04/17 08:23:08;;;;;;;4.22;2.78;;;;;;;11.83;30.90;96282.09;4994282;28;20084;-73
2022/04/17 08:25:34;;;;;;;3.05;2.75;;;;;;;12.02;30.35;96289.34;4994982;28;20034;-73
2022/04/17 08:28:01;;;;;;;5.07;2.50;;;;;;;11.78;30.71;96338.13;4993997;28;20034;-73
2022/04/17 08:30:32;;;;;;;3.50;2.70;;;;;;;10.86;32.69;96328.19;4994661;28;20562;-73
2022/04/17 08:33:04;;;;;;;3.15;2.83;;;;;;;11.67;31.23;96308.09;4994676;28;20049;-73
2022/04/17 08:35:30;;;;;;;2.97;2.65;;;;;;;11.57;31.42;96329.53;4994652;28;20073;-73
2022/04/17 08:37:57;;;;;;;2.72;2.50;;;;;;;12.17;31.03;96324.63;4992373;28;20034;-73
2022/04/17 08:40:24;;;;;;;3.63;2.25;;;;;;;12.60;30.32;96318.53;4994280;28;20433;-72
2022/04/17 08:42:50;;;;;;;3.28;2.70;;;;;;;11.92;30.76;96275.06;4993264;28;20117;-72
2022/04/17 08:45:16;;;;;;;3.17;2.60;;;;;;;11.10;32.14;96258.25;4992804;28;20029;-73
2022/04/17 08:47:42;;;;;;;4.18;2.85;;;;;;;11.81;32.14;96320.75;4991916;28;20018;-72
2022/04/17 08:50:09;;;;;;;3.20;2.75;;;;;;;11.94;31.36;96264.13;4992691;28;20028;-70
2022/04/17 08:52:35;;;;;;;4.07;2.60;;;;;;;12.22;30.74;96257.88;4993003;28;20498;-69
2022/04/17 08:55:01;;;;;;;3.15;2.95;;;;;;;12.14;30.19;96281.75;4992723;28;20026;-69
2022/04/17 08:57:28;;;;;;;2.92;2.72;;;;;;;12.23;29.69;96230.16;4992856;28;20026;-70
2022/04/17 08:59:53;;;;;;;3.38;2.40;;;;;;;12.19;30.40;96271.03;4993842;28;20034;-70
2022/04/17 09:02:19;;;;;;;2.53;2.33;;;;;;;11.37;31.73;96263.09;4992118;28;20089;-72
2022/04/17 09:04:45;;;;;;;3.03;2.60;;;;;;;11.85;30.36;96303.94;4992239;28;20030;-69
2022/04/17 09:07:11;;;;;;;5.22;2.40;;;;;;;11.78;30.44;96303.47;4991913;28;20037;-71
2022/04/17 09:09:53;;;;;;;2.92;2.45;;;;;;;11.93;29.62;96271.34;4994002;28;20023;-70
2022/04/17 09:12:21;;;;;;;2.75;2.53;;;;;;;11.95;29.25;96255.03;4992299;28;20046;-67
2022/04/17 09:14:47;;;;;;;3.35;2.67;;;;;;;11.80;30.07;96287.19;4993819;28;20113;-67
2022/04/17 09:17:12;;;;;;;3.33;2.28;;;;;;;11.70;29.26;96238.22;4993495;28;20113;-66
2022/04/17 09:19:38;;;;;;;3.35;2.70;;;;;;;12.15;31.11;96294.00;4993398;28;20034;-68
2022/04/17 09:22:08;;;;;;;3.17;2.88;;;;;;;12.17;29.31;96284.63;4992779;28;20434;-66
2022/04/17 09:24:37;;;;;;;3.25;2.85;;;;;;;11.36;30.71;96288.13;4993163;28;20479;-67
2022/04/17 09:27:04;;;;;;;3.03;2.75;;;;;;;11.64;31.26;96249.22;4993070;28;20054;-67
2022/04/17 09:29:33;;;;;;;4.03;2.83;;;;;;;11.38;31.10;96262.81;4991975;28;20647;-68
2022/04/17 09:32:20;;;;;;;3.05;2.50;;;;;;;11.97;30.86;96264.31;4992479;28;20487;-67
2022/04/17 09:34:52;;;;;;;2.95;2.53;;;;;;;12.21;29.18;96226.19;4991475;28;20026;-68
2022/04/17 09:37:22;;;;;;;3.63;2.70;;;;;;;12.89;28.98;96257.75;4992615;28;20077;-69
2022/04/17 09:39:49;;;;;;;3.80;2.72;;;;;;;13.25;28.64;96251.84;4991574;28;20033;-68
2022/04/17 09:42:25;;;;;;;3.17;2.50;;;;;;;12.81;27.63;96244.28;4991026;28;20026;-67
2022/04/17 09:44:55;;;;;;;2.80;2.47;;;;;;;12.21;28.45;96250.97;4992630;28;20080;-67
2022/04/17 09:47:22;;;;;;;3.40;2.88;;;;;;;12.56;27.99;96195.53;4992607;28;20053;-67
2022/04/17 09:49:57;;;;;;;2.70;2.50;;;;;;;13.21;28.11;96232.16;4992543;28;20490;-68
2022/04/17 09:52:33;;;;;;;3.33;2.83;;;;;;;13.29;27.32;96223.47;4992020;28;20494;-67
2022/04/17 09:55:03;;;;;;;4.15;2.70;;;;;;;12.84;27.37;96212.44;4992415;28;20066;-68
2022/04/17 09:57:34;;;;;;;3.75;2.60;;;;;;;13.12;27.67;96223.22;4992319;28;20033;-69
2022/04/17 10:00:07;;;;;;;3.17;2.88;;;;;;;12.78;28.10;96216.28;4992406;28;20117;-69
2022/04/17 10:02:33;;;;;;;3.30;2.80;;;;;;;11.88;28.14;96076.78;4992058;28;20030;-69
2022/04/17 10:05:00;;;;;;;2.90;2.60;;;;;;;12.19;29.14;96183.00;4992214;28;20018;-68
2022/04/17 10:07:25;;;;;;;4.18;3.03;;;;;;;12.44;28.11;96179.97;4992143;28;20090;-66
2022/04/17 10:09:51;;;;;;;3.45;2.72;;;;;;;13.09;27.41;96194.41;4992119;28;20590;-69
2022/04/17 10:12:19;;;;;;;3.05;2.60;;;;;;;12.82;27.30;96134.50;4991519;28;20034;-68
2022/04/17 10:14:50;;;;;;;3.22;2.58;;;;;;;13.35;27.80;96144.00;4990714;28;20021;-67
2022/04/17 10:17:21;;;;;;;2.67;2.47;;;;;;;12.56;27.94;96198.19;4991977;28;20026;-70
2022/04/17 10:19:50;;;;;;;4.43;2.70;;;;;;;13.25;27.92;96179.72;4991947;28;20023;-68
2022/04/17 10:22:21;;;;;;;3.50;2.75;;;;;;;13.88;26.50;96188.97;4991458;28;20023;-67
2022/04/17 10:24:51;;;;;;;3.25;2.78;;;;;;;13.06;27.60;96179.78;4990615;28;20466;-68
2022/04/17 10:27:22;;;;;;;3.20;2.88;;;;;;;12.90;28.34;96147.19;4991839;28;20076;-68
2022/04/17 10:30:03;;;;;;;4.32;3.30;;;;;;;12.91;28.59;96180.81;4991727;28;20023;-67
2022/04/17 10:32:28;;;;;;;2.67;2.45;;;;;;;12.31;29.17;96179.91;4991651;28;20027;-67
2022/04/17 10:35:12;;;;;;;2.70;2.50;;;;;;;13.52;27.85;96177.09;4991706;28;20037;-68
2022/04/17 10:37:53;;;;;;;2.70;2.50;;;;;;;13.49;28.03;96171.53;4991642;28;20030;-68
2022/04/17 10:40:19;;;;;;;3.40;3.10;;;;;;;13.52;27.14;96137.00;4991381;28;20026;-67
2022/04/17 10:42:55;;;;;;;4.40;2.88;;;;;;;14.12;27.61;96156.59;4991467;28;20142;-69
2022/04/17 10:45:22;;;;;;;3.25;2.90;;;;;;;14.38;26.93;96130.84;4991486;28;20603;-68
2022/04/17 10:48:26;;;;;;;4.28;3.28;;;;;;;14.35;26.83;96158.22;4991512;28;20029;-68
2022/04/17 10:50:52;;;;;;;5.53;3.00;;;;;;;14.30;27.01;96150.31;4979958;28;20046;-68
2022/04/17 10:53:31;;;;;;;3.33;3.00;;;;;;;14.71;26.73;96120.72;4991366;28;20537;-68
2022/04/17 10:56:08;;;;;;;3.35;3.05;;;;;;;14.83;25.99;96138.91;4991256;28;20078;-68
2022/04/17 10:58:40;;;;;;;3.60;2.92;;;;;;;14.85;26.43;96139.41;4991386;28;20030;-68
2022/04/17 11:01:06;;;;;;;3.17;2.80;;;;;;;14.69;27.24;96141.66;4990764;28;20041;-70
2022/04/17 11:03:34;;;;;;;3.47;3.17;;;;;;;14.96;26.67;96127.31;4991612;28;20023;-67
2022/04/17 11:06:31;;;;;;;3.88;3.53;;;;;;;14.04;28.01;96147.41;4990234;28;20026;-68
2022/04/17 11:09:24;;;;;;;5.13;3.40;;;;;;;13.40;28.92;96127.88;4991190;28;20022;-67
2022/04/17 11:11:50;;;;;;;3.90;3.05;;;;;;;13.42;29.20;96139.84;4987947;28;20061;-70
2022/04/17 11:14:20;;;;;;;2.90;2.70;;;;;;;13.89;28.45;96137.81;4991154;28;20024;-68
2022/04/17 11:16:59;;;;;;;6.35;3.80;;;;;;;13.82;28.95;96150.00;4990874;28;20494;-67
2022/04/17 11:19:29;;;;;;;4.50;3.97;;;;;;;14.21;27.86;96117.34;4990074;28;20743;-68
2022/04/17 11:22:04;;;;;;;4.28;3.88;;;;;;;14.83;27.07;96133.53;4990867;28;20057;-68
2022/04/17 11:24:56;;;;;;;3.10;2.90;;;;;;;14.31;27.80;96138.50;4991133;28;20076;-69
2022/04/17 11:27:35;;;;;;;3.45;3.17;;;;;;;14.31;27.41;96135.81;4984531;28;20634;-69
2022/04/17 11:30:02;;;;;;;3.72;3.42;;;;;;;14.76;27.14;96125.16;4991006;28;20033;-67
2022/04/17 11:32:28;;;;;;;3.50;3.20;;;;;;;14.19;28.29;96123.00;4991027;28;20018;-69
2022/04/17 11:34:56;;;;;;;3.70;3.40;;;;;;;14.32;27.31;96082.00;4990941;28;20447;-67
2022/04/17 11:37:26;;;;;;;3.65;3.35;;;;;;;14.66;27.22;96051.22;4990965;28;20026;-70
2022/04/17 11:39:55;;;;;;;3.35;3.05;;;;;;;14.70;27.98;96123.72;4989674;28;20022;-68
2022/04/17 11:42:22;;;;;;;3.72;2.95;;;;;;;14.41;27.15;96092.75;4990620;28;20033;-68
2022/04/17 11:44:49;;;;;;;3.30;3.00;;;;;;;14.07;27.20;96114.69;4989565;28;20034;-69
2022/04/17 11:47:16;;;;;;;3.10;2.90;;;;;;;14.75;26.43;96097.59;4989669;28;20054;-70
2022/04/17 11:49:43;;;;;;;2.63;2.42;;;;;;;14.35;26.48;96098.56;4991073;28;20027;-69
2022/04/17 11:52:13;;;;;;;4.63;2.60;;;;;;;14.23;26.61;96064.31;4990574;28;20451;-70